Time;durP1;ratioP1;P1;durP2;ratioP2;P2;SDS_P1;SDS_P2;PMS_P1;PMS_P2;Temp;Humidity;BMP_temperature;BMP_pressure;BME280_temperature;BME280_humidity;BME280_pressure;Samples;Min_cycle;Max_cycle;Signal;HPM_P1;HPM_P2
2021/09/22 00:00:11;;;;;;;18.97;15.30;;;10.10;1.00;10.80;101873.00;;;;4977447;28;20458;-77
2021/09/22 00:02:39;;;;;;;22.47;17.03;;;10.00;1.00;10.80;101846.00;;;;4976886;28;20952;-77
2021/09/22 00:05:12;;;;;;;19.30;16.37;;;9.90;1.00;10.70;101834.00;;;;4979799;28;20507;-79
2021/09/22 00:07:44;;;;;;;21.60;16.23;;;9.90;1.00;10.70;101807.00;;;;4977156;28;20427;-78
2021/09/22 00:10:18;;;;;;;24.77;17.87;;;9.90;1.00;10.70;101861.00;;;;4990458;28;20501;-78
2021/09/22 00:12:48;;;;;;;20.73;16.10;;;9.90;1.00;10.70;101839.00;;;;4970573;28;20816;-77
2021/09/22 00:15:20;;;;;;;18.37;13.60;;;9.80;1.00;10.70;101838.00;;;;4976153;28;20471;-77
2021/09/22 00:17:55;;;;;;;19.63;14.87;;;9.90;1.00;10.40;101819.00;;;;4974642;28;20451;-78
2021/09/22 00:20:27;;;;;;;20.83;14.20;;;9.80;1.00;10.70;101855.00;;;;4974460;28;20443;-78
2021/09/22 00:23:04;;;;;;;18.43;15.10;;;9.80;1.00;10.70;101846.00;;;;4967241;28;20460;-78
2021/09/22 00:25:36;;;;;;;16.07;13.70;;;9.80;1.00;10.60;101815.00;;;;4964736;28;20542;-76
2021/09/22 00:28:06;;;;;;;21.73;13.90;;;9.70;1.00;10.60;101847.00;;;;4974404;28;20435;-77
2021/09/22 00:30:35;;;;;;;15.17;12.53;;;9.70;1.00;10.50;101847.00;;;;4976714;28;20446;-78
2021/09/22 00:33:07;;;;;;;15.80;12.00;;;9.70;1.00;10.50;101848.00;;;;4986529;28;20543;-78
2021/09/22 00:35:37;;;;;;;14.10;11.60;;;9.70;1.00;10.50;101837.00;;;;4973579;28;20637;-78
2021/09/22 00:38:07;;;;;;;15.83;11.87;;;9.70;1.00;10.50;101801.00;;;;4986440;28;20451;-77
2021/09/22 00:40:36;;;;;;;19.27;13.20;;;9.70;1.00;10.50;101832.00;;;;4972687;28;20513;-78
2021/09/22 00:43:04;;;;;;;15.00;12.80;;;9.70;1.00;10.50;101849.00;;;;4972016;28;20459;-78
2021/09/22 00:45:33;;;;;;;16.50;13.70;;;9.60;1.00;10.40;101842.00;;;;4963386;28;20531;-77
2021/09/22 00:48:01;;;;;;;16.00;12.27;;;9.60;1.00;10.40;101816.00;;;;4952869;28;20453;-78
2021/09/22 00:50:37;;;;;;;22.23;13.50;;;9.60;1.00;10.30;101849.00;;;;4983366;28;21064;-77
2021/09/22 00:53:05;;;;;;;14.80;11.67;;;9.60;1.00;10.40;101839.00;;;;4972779;28;20498;-78
2021/09/22 00:55:35;;;;;;;17.50;12.13;;;9.60;1.00;10.30;101861.00;;;;4968020;28;20478;-78
2021/09/22 00:58:25;;;;;;;14.87;11.93;;;9.50;1.00;10.30;101854.00;;;;4966001;28;20448;-78
2021/09/22 01:00:54;;;;;;;16.50;12.50;;;9.50;1.00;10.30;101852.00;;;;4974341;28;20455;-77
2021/09/22 01:03:23;;;;;;;14.03;11.93;;;9.40;1.00;10.30;101793.00;;;;4972411;28;21023;-78
2021/09/22 01:05:54;;;;;;;13.67;12.00;;;9.40;1.00;10.30;101799.00;;;;4971958;28;20474;-77
2021/09/22 01:08:23;;;;;;;12.20;10.90;;;9.40;1.00;10.30;101850.00;;;;4973501;28;20451;-78
2021/09/22 01:10:51;;;;;;;13.13;10.33;;;9.50;1.00;10.30;101837.00;;;;4977110;28;20490;-77
2021/09/22 01:13:19;;;;;;;11.63;10.40;;;9.50;1.00;10.30;101849.00;;;;4977929;28;20466;-77
2021/09/22 01:15:49;;;;;;;12.43;10.80;;;9.50;1.00;10.20;101842.00;;;;4976336;28;20534;-77
2021/09/22 01:18:21;;;;;;;11.73;10.20;;;9.40;1.00;10.20;101852.00;;;;4976628;28;20458;-77
2021/09/22 01:20:54;;;;;;;12.07;10.80;;;9.50;1.00;10.20;101859.00;;;;4976710;28;20848;-77
2021/09/22 01:23:27;;;;;;;12.97;10.93;;;9.40;1.00;10.20;101862.00;;;;4974726;28;20478;-78
2021/09/22 01:26:00;;;;;;;14.23;10.67;;;9.40;1.00;10.20;101854.00;;;;4968625;28;21157;-78
2021/09/22 01:28:30;;;;;;;13.27;10.77;;;9.40;1.00;10.20;101873.00;;;;4977291;28;20491;-77
2021/09/22 01:31:04;;;;;;;15.23;11.03;;;9.50;1.00;10.20;101861.00;;;;4989134;28;20494;-77
2021/09/22 01:33:38;;;;;;;16.60;11.10;;;9.40;1.00;10.20;101835.00;;;;4991181;28;20894;-77
2021/09/22 01:36:13;;;;;;;11.67;10.40;;;9.40;1.00;10.10;101863.00;;;;4974067;28;20471;-77
2021/09/22 01:38:46;;;;;;;14.03;10.87;;;9.40;1.00;10.10;101853.00;;;;4989193;28;20546;-77
2021/09/22 01:41:19;;;;;;;13.30;10.47;;;9.40;1.00;10.10;101853.00;;;;4973729;28;20948;-77
2021/09/22 01:43:54;;;;;;;14.00;10.60;;;9.40;1.00;10.10;101825.00;;;;4971051;28;20522;-76
2021/09/22 01:46:29;;;;;;;11.70;10.47;;;9.30;1.00;10.00;101846.00;;;;4972029;28;20490;-76
2021/09/22 01:48:58;;;;;;;12.37;10.63;;;9.40;1.00;10.00;101851.00;;;;4969537;28;20982;-76
2021/09/22 01:51:31;;;;;;;11.03;9.93;;;9.20;1.00;10.00;101833.00;;;;4973532;28;20470;-76
2021/09/22 01:54:12;;;;;;;13.83;10.13;;;9.30;1.00;10.00;101838.00;;;;4972716;28;20455;-77
2021/09/22 01:56:48;;;;;;;12.80;10.90;;;9.20;1.00;10.00;101837.00;;;;4971545;28;20559;-78
2021/09/22 01:59:18;;;;;;;12.67;10.27;;;9.20;1.00;9.90;101826.00;;;;4975281;28;20482;-77
2021/09/22 02:02:22;;;;;;;14.50;11.33;;;9.20;1.00;10.00;101822.00;;;;4990373;28;20462;-76
2021/09/22 02:05:23;;;;;;;11.27;10.17;;;9.20;1.00;9.90;101825.00;;;;4969066;28;20477;-77
2021/09/22 02:08:00;;;;;;;12.80;10.80;;;9.20;1.00;9.90;101820.00;;;;4971466;28;20462;-78
2021/09/22 02:10:31;;;;;;;11.17;9.77;;;9.20;1.00;9.90;101796.00;;;;4995057;28;20452;-76
2021/09/22 02:13:00;;;;;;;12.17;10.67;;;9.20;1.00;9.90;101812.00;;;;4996913;28;20451;-77
2021/09/22 02:15:28;;;;;;;15.20;10.70;;;9.20;1.00;9.80;101814.00;;;;4980154;28;20472;-77
2021/09/22 02:18:16;;;;;;;12.40;9.70;;;9.10;1.00;9.90;101797.00;;;;4971523;28;20435;-77
2021/09/22 02:20:45;;;;;;;12.60;9.80;;;9.20;1.00;9.80;101811.00;;;;4976931;28;20517;-78
2021/09/22 02:23:20;;;;;;;11.10;10.00;;;9.20;1.00;9.80;101805.00;;;;4974169;28;20462;-77
2021/09/22 02:25:52;;;;;;;12.00;10.80;;;9.20;1.00;9.80;101820.00;;;;4989120;28;20534;-77
2021/09/22 02:28:21;;;;;;;13.03;10.80;;;9.20;1.00;9.80;101821.00;;;;4977163;28;20459;-77
2021/09/22 02:30:49;;;;;;;14.37;10.20;;;9.10;1.00;9.80;101807.00;;;;4976764;28;20977;-77
2021/09/22 02:33:17;;;;;;;11.40;10.13;;;9.10;1.00;9.80;101802.00;;;;4974008;28;20514;-77
2021/09/22 02:35:46;;;;;;;13.13;9.40;;;9.10;1.00;9.70;101782.00;;;;4973445;28;21353;-77
2021/09/22 02:38:21;;;;;;;13.70;11.00;;;9.00;1.00;9.70;101812.00;;;;4974531;28;21038;-77
2021/09/22 02:40:51;;;;;;;12.17;10.80;;;9.00;1.00;9.70;101817.00;;;;4972474;28;20455;-77
2021/09/22 02:43:24;;;;;;;13.20;10.53;;;9.00;1.00;9.70;101779.00;;;;4972267;28;20963;-77
2021/09/22 02:45:53;;;;;;;12.60;11.30;;;9.00;1.00;9.70;101814.00;;;;4966058;28;20465;-77
2021/09/22 02:48:31;;;;;;;14.47;10.43;;;9.00;1.00;9.70;101810.00;;;;4972642;28;20465;-77
2021/09/22 02:51:01;;;;;;;12.23;10.73;;;8.90;1.00;9.60;101812.00;;;;4987419;28;20561;-77
2021/09/22 02:53:31;;;;;;;13.40;10.33;;;8.90;1.00;9.60;101823.00;;;;4985250;28;20901;-78
2021/09/22 02:56:00;;;;;;;11.57;10.40;;;8.90;1.00;9.60;101808.00;;;;4982621;28;20492;-78
2021/09/22 02:58:29;;;;;;;14.37;11.37;;;8.90;1.00;9.60;101815.00;;;;4971920;28;20549;-78
2021/09/22 03:00:59;;;;;;;13.70;11.70;;;8.90;1.00;9.60;101806.00;;;;4990991;28;20543;-77
2021/09/22 03:03:29;;;;;;;14.37;11.40;;;8.90;1.00;9.60;101820.00;;;;4970213;28;20552;-78
2021/09/22 03:05:59;;;;;;;15.93;12.03;;;8.90;1.00;9.60;101821.00;;;;4967483;28;20503;-78
2021/09/22 03:08:28;;;;;;;17.30;11.17;;;8.80;1.00;9.60;101802.00;;;;4973236;28;20562;-78
2021/09/22 03:10:57;;;;;;;12.97;11.20;;;8.80;1.00;9.50;101822.00;;;;4986790;28;20467;-77
2021/09/22 03:13:28;;;;;;;12.53;11.23;;;8.80;1.00;9.60;101814.00;;;;4972531;28;20552;-76
2021/09/22 03:15:57;;;;;;;13.77;11.57;;;8.90;1.00;9.50;101819.00;;;;4972354;28;20471;-77
2021/09/22 03:18:25;;;;;;;11.97;10.67;;;8.80;1.00;9.50;101806.00;;;;4971422;28;20547;-77
2021/09/22 03:20:54;;;;;;;13.00;11.63;;;8.70;1.00;9.40;101817.00;;;;4971198;28;20467;-77
2021/09/22 03:23:22;;;;;;;13.00;11.20;;;8.70;1.00;9.40;101816.00;;;;4973725;28;20965;-77
2021/09/22 03:25:54;;;;;;;14.87;12.53;;;8.70;1.00;9.40;101808.00;;;;4974219;28;20487;-77
2021/09/22 03:28:24;;;;;;;12.13;10.83;;;8.60;1.00;9.40;101818.00;;;;4973927;28;20483;-77
2021/09/22 03:30:55;;;;;;;14.17;11.00;;;8.60;1.00;9.30;101819.00;;;;4969358;28;20457;-77
2021/09/22 03:33:25;;;;;;;11.50;10.30;;;8.60;1.00;9.30;101829.00;;;;4976872;28;20452;-76
2021/09/22 03:35:54;;;;;;;13.50;12.03;;;8.60;1.00;9.30;101829.00;;;;4981608;28;20499;-77
2021/09/22 03:38:23;;;;;;;16.20;11.50;;;8.50;1.00;9.20;101791.00;;;;4990162;28;20456;-77
2021/09/22 03:40:57;;;;;;;16.67;11.87;;;8.50;1.00;9.20;101819.00;;;;4984126;28;20542;-77
2021/09/22 03:43:26;;;;;;;16.03;12.20;;;8.50;1.00;9.20;101832.00;;;;4994332;28;20452;-77
2021/09/22 03:45:57;;;;;;;13.20;12.00;;;8.50;1.00;9.20;101839.00;;;;4980505;28;20473;-77
2021/09/22 03:48:26;;;;;;;14.90;11.50;;;8.50;1.00;9.20;101851.00;;;;4966568;28;20463;-77
2021/09/22 03:50:54;;;;;;;13.37;11.63;;;8.40;1.00;9.20;101850.00;;;;4976336;28;20459;-77
2021/09/22 03:53:34;;;;;;;12.57;11.20;;;8.40;1.00;9.20;101854.00;;;;4976073;28;21048;-77
2021/09/22 03:56:03;;;;;;;14.70;11.30;;;8.40;1.00;9.10;101852.00;;;;4972236;28;20471;-78
2021/09/22 03:58:31;;;;;;;14.33;11.93;;;8.40;1.00;9.20;101843.00;;;;4976619;28;20443;-78
2021/09/22 04:01:01;;;;;;;13.60;11.70;;;8.40;1.00;9.10;101847.00;;;;4976215;28;20525;-77
2021/09/22 04:03:31;;;;;;;12.97;11.63;;;8.40;1.00;9.10;101860.00;;;;4977539;28;20455;-78
2021/09/22 04:06:00;;;;;;;13.37;11.90;;;8.30;1.00;9.10;101847.00;;;;4971588;28;20472;-76
2021/09/22 04:08:29;;;;;;;13.10;11.20;;;8.30;1.00;9.10;101852.00;;;;4969113;28;20475;-77
2021/09/22 04:10:58;;;;;;;16.60;11.43;;;8.30;1.00;9.10;101859.00;;;;4970746;28;20455;-76
2021/09/22 04:13:27;;;;;;;14.40;11.43;;;8.40;1.00;9.10;101809.00;;;;4972239;28;20538;-76
2021/09/22 04:15:56;;;;;;;12.63;11.33;;;8.40;1.00;9.10;101840.00;;;;4971375;28;20546;-77
2021/09/22 04:18:27;;;;;;;15.00;12.03;;;8.40;1.00;9.00;101849.00;;;;4973232;28;20459;-77
2021/09/22 04:20:56;;;;;;;14.33;12.60;;;8.50;1.00;9.10;101836.00;;;;4986683;28;20503;-77
2021/09/22 04:23:25;;;;;;;19.00;12.17;;;8.40;1.00;9.00;101846.00;;;;4970658;28;20562;-77
2021/09/22 04:25:54;;;;;;;15.90;12.30;;;8.40;1.00;9.10;101847.00;;;;4967703;28;20490;-77
2021/09/22 04:28:22;;;;;;;16.40;12.93;;;8.50;1.00;9.10;101847.00;;;;4969797;28;20525;-77
2021/09/22 04:31:09;;;;;;;15.67;11.73;;;8.40;1.00;9.10;101798.00;;;;4967159;28;20483;-77
2021/09/22 04:33:58;;;;;;;19.60;12.27;;;8.40;1.00;9.10;101839.00;;;;4967226;28;20447;-77
2021/09/22 04:36:45;;;;;;;15.00;12.07;;;8.40;1.00;9.10;101823.00;;;;4970484;28;20443;-79
2021/09/22 04:39:32;;;;;;;13.87;11.73;;;8.40;1.00;9.00;101833.00;;;;4973379;28;20825;-77
2021/09/22 04:42:19;;;;;;;16.33;12.90;;;8.30;1.00;9.00;101824.00;;;;4964303;28;20470;-79
2021/09/22 04:45:09;;;;;;;15.83;12.10;;;8.30;1.00;9.00;101829.00;;;;4965241;28;20482;-78
2021/09/22 04:47:57;;;;;;;15.13;11.87;;;8.30;1.00;9.00;101824.00;;;;4973373;28;20478;-78
2021/09/22 04:50:45;;;;;;;15.90;11.93;;;8.40;1.00;9.00;101829.00;;;;4979239;28;20449;-78
2021/09/22 04:53:32;;;;;;;16.47;12.70;;;8.40;1.00;9.00;101825.00;;;;4980505;28;20514;-76
2021/09/22 04:56:19;;;;;;;19.57;12.40;;;8.30;1.00;9.00;101830.00;;;;4979568;28;20481;-78
2021/09/22 04:59:06;;;;;;;18.50;12.03;;;8.30;1.00;9.00;101836.00;;;;4977411;28;20450;-76
2021/09/22 05:01:53;;;;;;;21.90;13.10;;;8.40;1.00;9.00;101829.00;;;;4985267;28;20483;-76
2021/09/22 05:04:41;;;;;;;19.03;12.43;;;8.40;1.00;9.00;101830.00;;;;4985340;28;20479;-76
2021/09/22 05:07:29;;;;;;;20.40;12.10;;;8.30;1.00;9.00;101806.00;;;;4985384;28;20514;-77
2021/09/22 05:10:16;;;;;;;18.47;12.50;;;8.30;1.00;9.00;101827.00;;;;4978835;28;20499;-76
2021/09/22 05:13:03;;;;;;;15.70;11.70;;;8.40;1.00;9.00;101834.00;;;;4979103;28;20470;-77
2021/09/22 05:15:51;;;;;;;15.97;11.90;;;8.40;1.00;9.00;101846.00;;;;4981728;28;20474;-77
2021/09/22 05:18:38;;;;;;;16.90;12.67;;;8.40;1.00;9.00;101845.00;;;;4975231;28;20467;-77
2021/09/22 05:21:25;;;;;;;13.07;11.53;;;8.40;1.00;9.00;101848.00;;;;4968140;28;20842;-77
2021/09/22 05:24:13;;;;;;;16.70;11.93;;;8.40;1.00;9.00;101858.00;;;;4973304;28;20510;-76
2021/09/22 05:27:00;;;;;;;16.20;12.40;;;8.40;1.00;9.00;101853.00;;;;4966237;28;20503;-77
2021/09/22 05:29:47;;;;;;;13.73;11.47;;;8.40;1.00;9.10;101861.00;;;;4973741;28;20554;-78
2021/09/22 05:32:34;;;;;;;16.73;11.37;;;8.40;1.00;9.10;101875.00;;;;4976939;28;20481;-77
2021/09/22 05:35:21;;;;;;;14.30;11.83;;;8.50;1.00;9.10;101855.00;;;;4981578;28;20474;-77
2021/09/22 05:38:08;;;;;;;15.33;10.63;;;8.60;1.00;9.20;101858.00;;;;4975224;28;20498;-77
2021/09/22 05:40:56;;;;;;;13.30;10.83;;;8.70;1.00;9.30;101870.00;;;;4976330;28;20506;-76
2021/09/22 05:43:43;;;;;;;17.30;12.37;;;8.90;1.00;9.30;101869.00;;;;4974832;28;20459;-76
2021/09/22 05:46:30;;;;;;;15.00;11.70;;;9.00;1.00;9.40;101871.00;;;;4962204;28;20478;-77
2021/09/22 05:49:18;;;;;;;15.07;11.13;;;8.80;1.00;9.40;101862.00;;;;4973490;28;20467;-78
2021/09/22 05:52:05;;;;;;;17.53;10.93;;;8.90;1.00;9.50;101830.00;;;;4975150;28;20467;-77
2021/09/22 05:55:10;;;;;;;17.10;12.50;;;8.90;1.00;9.50;101851.00;;;;4999030;28;20534;-77
2021/09/22 05:57:58;;;;;;;21.90;11.53;;;8.80;1.00;9.50;101858.00;;;;4992975;28;20463;-81
2021/09/22 06:00:46;;;;;;;17.77;11.90;;;8.80;1.00;9.60;101871.00;;;;5000393;28;20459;-78
2021/09/22 06:03:34;;;;;;;13.07;10.40;;;8.80;1.00;9.60;101843.00;;;;4979985;28;20463;-77
2021/09/22 06:06:22;;;;;;;15.43;11.40;;;8.90;1.00;9.60;101860.00;;;;4982713;28;20479;-77
2021/09/22 06:09:09;;;;;;;13.50;10.70;;;8.90;1.00;9.70;101847.00;;;;4986607;28;20451;-76
2021/09/22 06:11:51;;;;;;;13.10;10.60;;;9.00;1.00;9.70;101863.00;;;;4966465;28;20471;-77
2021/09/22 06:14:21;;;;;;;13.47;12.03;;;9.00;1.00;9.70;101861.00;;;;4983258;28;20467;-78
2021/09/22 06:16:49;;;;;;;14.90;11.33;;;9.10;1.00;9.80;101862.00;;;;4984619;28;22100;-77
2021/09/22 06:19:26;;;;;;;16.57;11.07;;;9.10;1.00;9.90;101877.00;;;;5005480;28;21011;-77
2021/09/22 06:21:55;;;;;;;15.33;9.90;;;9.10;1.00;9.90;101849.00;;;;4982119;28;20539;-77
2021/09/22 06:24:43;;;;;;;15.83;10.10;;;9.30;1.00;10.00;101877.00;;;;4986207;28;20490;-77
2021/09/22 06:27:15;;;;;;;15.77;10.93;;;9.40;1.00;10.10;101865.00;;;;4988166;28;20484;-78
2021/09/22 06:29:48;;;;;;;18.90;11.13;;;9.40;1.00;10.20;101878.00;;;;4983083;28;20455;-77
2021/09/22 06:32:17;;;;;;;12.30;10.40;;;9.50;1.00;10.20;101877.00;;;;4987063;28;20473;-77
2021/09/22 06:35:06;;;;;;;15.23;10.70;;;9.50;1.00;10.40;101879.00;;;;4990237;28;20479;-78
2021/09/22 06:37:53;;;;;;;14.20;11.10;;;9.70;1.00;10.50;101875.00;;;;4978950;28;20450;-77
2021/09/22 06:40:24;;;;;;;16.17;11.00;;;9.80;1.00;10.60;101828.00;;;;4977668;28;20460;-78
2021/09/22 06:42:59;;;;;;;12.13;10.87;;;10.00;1.00;10.70;101873.00;;;;4982399;28;21081;-78
2021/09/22 06:45:29;;;;;;;12.90;10.40;;;10.00;1.00;10.80;101854.00;;;;4979852;28;20495;-77
2021/09/22 06:47:57;;;;;;;15.13;10.33;;;10.10;1.00;10.90;101874.00;;;;4977072;28;20464;-76
2021/09/22 06:50:27;;;;;;;20.43;10.50;;;10.20;1.00;11.10;101874.00;;;;4987268;28;20463;-78
2021/09/22 06:52:55;;;;;;;16.13;10.40;;;10.30;1.00;11.20;101877.00;;;;4985899;28;20493;-77
2021/09/22 06:55:24;;;;;;;14.20;10.17;;;10.40;1.00;11.20;101877.00;;;;4983905;28;20476;-78
2021/09/22 06:57:52;;;;;;;12.87;10.63;;;10.50;1.00;11.20;101857.00;;;;4976481;28;20547;-77
2021/09/22 07:00:21;;;;;;;16.00;10.93;;;10.50;1.00;11.20;101874.00;;;;4979023;28;20464;-77
2021/09/22 07:02:51;;;;;;;11.57;10.00;;;10.60;1.00;11.30;101877.00;;;;4995040;28;20544;-77
2021/09/22 07:05:20;;;;;;;12.47;9.80;;;10.60;1.00;11.40;101870.00;;;;4981297;28;20566;-78
2021/09/22 07:07:48;;;;;;;17.60;10.20;;;10.70;1.00;11.60;101863.00;;;;4983729;28;20460;-78
2021/09/22 07:10:17;;;;;;;14.67;10.57;;;10.90;1.00;11.80;101872.00;;;;4971167;28;20459;-77
2021/09/22 07:12:50;;;;;;;14.43;9.37;;;11.00;1.00;11.90;101871.00;;;;4977996;28;20478;-77
2021/09/22 07:15:19;;;;;;;14.27;9.90;;;11.10;1.00;12.10;101875.00;;;;4979935;28;20569;-76
2021/09/22 07:17:47;;;;;;;18.60;11.20;;;11.30;1.00;12.10;101872.00;;;;4979580;28;20497;-77
2021/09/22 07:20:17;;;;;;;16.33;11.80;;;11.40;1.00;12.20;101893.00;;;;4973113;28;20454;-77
2021/09/22 07:22:46;;;;;;;14.60;11.07;;;11.60;1.00;12.30;101879.00;;;;4977006;28;20471;-76
2021/09/22 07:25:14;;;;;;;22.07;11.33;;;11.60;1.00;12.40;101873.00;;;;4974711;28;20844;-78
2021/09/22 07:27:42;;;;;;;10.93;9.73;;;11.70;1.00;12.50;101885.00;;;;4976298;28;20464;-77
2021/09/22 07:30:14;;;;;;;14.70;10.43;;;11.80;1.00;12.60;101887.00;;;;4975710;28;20977;-77
2021/09/22 07:32:44;;;;;;;13.73;10.50;;;11.90;1.00;12.70;101887.00;;;;4991481;28;20449;-78
2021/09/22 07:35:13;;;;;;;13.83;10.67;;;12.00;1.00;12.80;101897.00;;;;4976082;28;20487;-77
2021/09/22 07:37:44;;;;;;;12.97;10.50;;;12.10;1.00;12.90;101890.00;;;;4976172;28;20937;-77
2021/09/22 07:40:14;;;;;;;12.00;10.10;;;12.20;1.00;13.00;101875.00;;;;4973860;28;20466;-77
2021/09/22 07:42:43;;;;;;;11.90;10.53;;;12.40;1.00;13.20;101884.00;;;;4976881;28;20471;-77
2021/09/22 07:45:13;;;;;;;11.90;10.47;;;12.50;1.00;13.30;101888.00;;;;4974549;28;20482;-77
2021/09/22 07:47:42;;;;;;;11.37;10.27;;;12.70;1.00;13.50;101884.00;;;;4976485;28;20482;-77
2021/09/22 07:50:12;;;;;;;11.93;10.37;;;12.80;1.00;13.60;101884.00;;;;4976073;28;20834;-77
2021/09/22 07:52:42;;;;;;;14.10;10.67;;;12.90;1.00;13.60;101895.00;;;;4977158;28;20446;-77
2021/09/22 07:55:12;;;;;;;16.37;12.63;;;12.90;1.00;13.60;101900.00;;;;4975799;28;21035;-77
2021/09/22 07:57:40;;;;;;;12.33;9.73;;;12.90;1.00;13.60;101899.00;;;;4975521;28;20969;-77
2021/09/22 08:00:11;;;;;;;12.07;10.67;;;13.00;1.00;13.60;101894.00;;;;4975647;28;20535;-79
2021/09/22 08:02:40;;;;;;;13.00;10.47;;;12.90;1.00;13.60;101892.00;;;;4978418;28;20471;-78
2021/09/22 08:05:10;;;;;;;10.63;9.53;;;13.00;1.00;13.60;101901.00;;;;4961214;28;20477;-80
2021/09/22 08:07:47;;;;;;;11.80;9.90;;;13.00;1.00;13.70;101902.00;;;;4980079;28;20447;-79
2021/09/22 08:10:17;;;;;;;15.90;8.83;;;13.30;1.00;13.90;101898.00;;;;4978715;28;20791;-78
2021/09/22 08:12:49;;;;;;;11.60;9.20;;;13.40;1.00;14.00;101908.00;;;;4977210;28;20451;-76
2021/09/22 08:15:19;;;;;;;10.67;9.67;;;13.60;1.00;14.10;101871.00;;;;4974974;28;20579;-78
2021/09/22 08:17:47;;;;;;;9.90;9.00;;;13.70;1.00;14.20;101910.00;;;;4978006;28;20440;-78
2021/09/22 08:20:16;;;;;;;9.77;8.87;;;13.80;1.00;14.30;101899.00;;;;4988530;28;20452;-78
2021/09/22 08:22:48;;;;;;;10.50;9.40;;;13.80;1.00;14.40;101901.00;;;;4994532;28;20506;-77
2021/09/22 08:25:18;;;;;;;10.80;8.67;;;13.90;1.00;14.50;101898.00;;;;4989879;28;20475;-78
2021/09/22 08:27:48;;;;;;;11.70;8.87;;;14.10;1.00;14.70;101880.00;;;;4997122;28;20491;-78
2021/09/22 08:30:17;;;;;;;11.23;8.77;;;14.30;1.00;14.80;101893.00;;;;4997614;28;20492;-77
2021/09/22 08:32:46;;;;;;;8.40;7.40;;;14.30;1.00;14.90;101878.00;;;;4993684;28;20451;-77
2021/09/22 08:35:14;;;;;;;8.40;7.30;;;14.50;1.00;15.00;101877.00;;;;4983476;28;20498;-77
2021/09/22 08:37:43;;;;;;;10.03;8.03;;;14.50;1.00;15.10;101883.00;;;;4986962;28;20460;-78
2021/09/22 08:40:14;;;;;;;9.47;8.10;;;14.60;1.00;15.10;101903.00;;;;4977325;28;20531;-78
2021/09/22 08:42:43;;;;;;;9.73;8.63;;;14.60;1.00;15.30;101896.00;;;;4977939;28;20486;-78
2021/09/22 08:45:12;;;;;;;8.63;7.43;;;14.60;1.00;15.30;101897.00;;;;4977018;28;20463;-78
2021/09/22 08:47:43;;;;;;;8.87;7.93;;;14.60;1.00;15.40;101904.00;;;;4975022;28;20559;-77
2021/09/22 08:50:14;;;;;;;9.00;8.00;;;14.70;1.00;15.40;101892.00;;;;4975178;28;20961;-77
2021/09/22 08:52:44;;;;;;;11.50;8.80;;;14.70;1.00;15.50;101874.00;;;;4977659;28;20478;-78
2021/09/22 08:55:14;;;;;;;10.70;8.57;;;14.70;1.00;15.50;101897.00;;;;4971770;28;20488;-78
2021/09/22 08:57:43;;;;;;;12.13;8.80;;;14.80;1.00;15.30;101896.00;;;;4956981;29;20527;-77
2021/09/22 09:00:14;;;;;;;14.73;8.90;;;14.80;1.00;15.50;101891.00;;;;4977700;28;20483;-77
2021/09/22 09:02:46;;;;;;;13.83;8.67;;;14.90;1.00;15.50;101880.00;;;;4982528;28;20534;-78
2021/09/22 09:05:18;;;;;;;14.70;9.00;;;15.00;1.00;15.70;101870.00;;;;4980010;28;20990;-77
2021/09/22 09:07:49;;;;;;;9.80;8.77;;;15.20;1.00;16.10;101875.00;;;;4959610;29;20447;-78
2021/09/22 09:10:22;;;;;;;13.30;9.33;;;15.50;1.00;16.30;101857.00;;;;4957053;29;20927;-77
2021/09/22 09:13:00;;;;;;;14.50;8.50;;;15.70;1.00;16.30;101861.00;;;;4958713;28;20520;-78
2021/09/22 09:15:39;;;;;;;11.50;8.47;;;15.90;1.00;16.40;101884.00;;;;4970410;28;20481;-78
2021/09/22 09:18:19;;;;;;;13.70;9.83;;;16.00;1.00;16.50;101865.00;;;;4973661;28;20932;-77
2021/09/22 09:20:51;;;;;;;10.73;8.10;;;16.10;1.00;16.70;101854.00;;;;4959478;28;20892;-78
2021/09/22 09:23:20;;;;;;;11.97;9.40;;;16.30;1.00;16.90;101862.00;;;;4971866;28;20546;-79
2021/09/22 09:26:00;;;;;;;11.50;9.40;;;16.60;1.00;17.10;101874.00;;;;4974299;28;20487;-79
2021/09/22 09:28:32;;;;;;;13.13;9.47;;;16.80;1.00;17.40;101858.00;;;;4975327;28;20487;-79
2021/09/22 09:31:05;;;;;;;8.67;7.60;;;17.10;1.00;17.60;101821.00;;;;4979816;28;20463;-78
2021/09/22 09:33:43;;;;;;;12.40;7.70;;;17.30;1.00;17.60;101854.00;;;;4983696;28;20876;-79
2021/09/22 09:36:28;;;;;;;11.63;7.37;;;17.20;1.00;17.60;101853.00;;;;4989180;28;20545;-78
2021/09/22 09:39:08;;;;;;;9.33;7.00;;;17.20;1.00;17.70;101849.00;;;;4959812;28;20539;-77
2021/09/22 09:41:42;;;;;;;13.40;7.70;;;17.30;1.00;17.80;101845.00;;;;4968194;28;20451;-78
2021/09/22 09:44:13;;;;;;;8.60;7.50;;;17.40;1.00;17.90;101851.00;;;;4976450;28;20470;-78
2021/09/22 09:46:42;;;;;;;9.23;8.00;;;17.50;1.00;17.90;101847.00;;;;4985817;28;20476;-78
2021/09/22 09:49:12;;;;;;;8.97;7.50;;;17.50;1.00;17.90;101847.00;;;;4998366;28;20435;-79
2021/09/22 09:51:44;;;;;;;10.20;8.10;;;17.40;1.00;18.00;101847.00;;;;4999989;28;20534;-78
2021/09/22 09:54:18;;;;;;;7.93;7.13;;;17.50;1.00;18.10;101855.00;;;;4981688;28;20454;-79
2021/09/22 09:56:49;;;;;;;8.57;7.53;;;17.60;1.00;18.40;101841.00;;;;4962267;28;20448;-79
2021/09/22 09:59:19;;;;;;;8.53;7.63;;;17.90;1.00;18.50;101852.00;;;;4972386;28;20470;-79
2021/09/22 10:01:50;;;;;;;9.00;7.33;;;18.00;1.00;18.50;101836.00;;;;4976761;28;20791;-78
2021/09/22 10:04:22;;;;;;;12.50;7.40;;;17.90;1.00;18.70;101839.00;;;;4976775;28;20475;-79
2021/09/22 10:06:52;;;;;;;10.80;8.77;;;18.00;1.00;18.70;101845.00;;;;4968482;28;20488;-79
2021/09/22 10:09:21;;;;;;;11.20;7.33;;;18.10;1.00;18.70;101825.00;;;;4986749;28;20543;-79
2021/09/22 10:11:52;;;;;;;9.10;7.10;;;18.00;1.00;18.70;101837.00;;;;4983262;28;20481;-79
2021/09/22 10:14:20;;;;;;;10.73;7.50;;;18.10;1.00;18.70;101828.00;;;;4972371;28;20816;-79
2021/09/22 10:16:54;;;;;;;10.23;7.47;;;18.20;1.00;18.70;101805.00;;;;4974830;28;20460;-79
2021/09/22 10:19:23;;;;;;;9.43;8.43;;;18.30;1.00;18.60;101833.00;;;;4971708;28;20456;-79
2021/09/22 10:21:53;;;;;;;8.73;7.83;;;18.30;1.00;18.40;101769.00;;;;4984777;28;20447;-78
2021/09/22 10:24:22;;;;;;;10.13;8.70;;;18.10;1.00;18.30;101824.00;;;;4983408;28;20571;-78
2021/09/22 10:26:53;;;;;;;11.10;8.60;;;18.00;1.00;18.20;101831.00;;;;4977125;28;20549;-78
2021/09/22 10:29:26;;;;;;;12.33;8.37;;;18.10;1.00;18.20;101815.00;;;;4975472;28;20455;-78
2021/09/22 10:31:57;;;;;;;11.17;9.27;;;18.10;1.00;18.20;101816.00;;;;4976862;28;20458;-78
2021/09/22 10:34:29;;;;;;;11.30;9.33;;;18.10;1.00;18.30;101809.00;;;;4976980;28;20448;-79
2021/09/22 10:37:00;;;;;;;11.40;8.80;;;18.20;1.00;18.40;101799.00;;;;4976988;28;21340;-79
2021/09/22 10:39:43;;;;;;;10.47;8.03;;;18.30;1.00;18.40;101810.00;;;;4977939;28;20515;-78
2021/09/22 10:42:29;;;;;;;10.00;7.93;;;18.40;1.00;18.40;101807.00;;;;4962331;28;20441;-78
2021/09/22 10:45:17;;;;;;;11.00;7.93;;;18.30;1.00;18.60;101806.00;;;;4980390;28;20491;-78
2021/09/22 10:47:46;;;;;;;10.90;7.63;;;18.40;1.00;18.80;101804.00;;;;4958889;28;20522;-78
2021/09/22 10:50:49;;;;;;;8.73;7.83;;;18.60;1.00;18.80;101788.00;;;;4982041;28;20478;-78
2021/09/22 10:53:39;;;;;;;7.23;6.53;;;18.60;1.00;18.70;101804.00;;;;4990137;28;20447;-79
2021/09/22 10:56:11;;;;;;;10.10;8.23;;;18.60;1.00;18.70;101788.00;;;;4996921;28;20487;-78
2021/09/22 10:58:43;;;;;;;16.50;10.30;;;18.50;1.00;18.70;101796.00;;;;4993571;28;20427;-78
2021/09/22 11:01:12;;;;;;;8.80;7.43;;;18.50;1.00;18.80;101806.00;;;;4989112;28;20451;-78
2021/09/22 11:03:57;;;;;;;11.40;8.67;;;18.60;1.00;18.80;101797.00;;;;4981405;28;20440;-78
2021/09/22 11:06:59;;;;;;;8.03;7.20;;;18.70;1.00;18.80;101789.00;;;;4985725;28;20466;-79
2021/09/22 11:09:36;;;;;;;9.20;7.50;;;18.70;1.00;18.80;101777.00;;;;4976987;28;20448;-78
2021/09/22 11:12:14;;;;;;;7.90;7.00;;;18.80;1.00;18.90;101782.00;;;;4984825;28;20435;-78
2021/09/22 11:14:48;;;;;;;8.00;7.10;;;19.00;1.00;19.10;101786.00;;;;4984973;28;20573;-78
2021/09/22 11:17:29;;;;;;;9.33;6.30;;;19.20;1.00;19.20;101688.00;;;;4975282;28;20838;-78
2021/09/22 11:20:05;;;;;;;8.00;7.17;;;19.20;1.00;19.20;101780.00;;;;4978378;28;20444;-79